Time,TemperatureF,DewpointF,PressureIn,WindDirection,WindDirectionDegrees,WindSpeedMPH,WindSpeedGustMPH,Humidity,HourlyPrecipIn,Conditions,Clouds,dailyrainin,SoftwareType,DateUTC
2013-05-25 00:04:00,71.2,63.2,30.09,SSE,157,3.6,15.7,76,-99.99,,,0.00,wxRedirect v1.1,2013-05-25 05:04:00,
2013-05-25 00:09:00,71.2,63.2,30.09,SSE,157,4.5,15.7,76,-99.99,,,0.00,wxRedirect v1.1,2013-05-25 05:09:00,
2013-05-25 00:14:00,70.9,62.9,30.09,SE,135,0.0,18.8,76,-99.99,,,0.00,wxRedirect v1.1,2013-05-25 05:14:00,
2013-05-25 00:20:00,70.9,62.9,30.10,SSE,157,4.9,18.8,76,-99.99,,,0.00,wxRedirect v1.1,2013-05-25 05:20:00,
2013-05-25 00:25:00,70.7,63.1,30.10,SSE,157,6.7,18.1,77,-99.99,,,0.00,wxRedirect v1.1,2013-05-25 05:25:00,
2013-05-25 00:30:00,70.5,62.9,30.10,SSE,157,2.0,17.0,77,-99.99,,,0.00,wxRedirect v1.1,2013-05-25 05:30:00,
2013-05-25 00:36:00,70.5,62.9,30.10,North,-999,-999.0,-999.0,77,-99.99,,,0.00,wxRedirect v1.1,2013-05-25 05:36:00,
2013-05-25 00:41:00,70.3,62.7,30.09,South,180,0.0,18.1,77,-99.99,,,0.00,wxRedirect v1.1,2013-05-25 05:41:00,
2013-05-25 00:46:00,70.3,62.7,30.09,SSE,157,7.4,18.1,77,-99.99,,,0.00,wxRedirect v1.1,2013-05-25 05:46:00,
2013-05-25 00:51:00,70.2,62.5,30.09,South,180,11.9,16.8,77,-99.99,,,0.00,wxRedirect v1.1,2013-05-25 05:51:00,
2013-05-25 00:57:00,70.0,62.4,30.09,SE,135,4.0,16.3,77,-99.99,,,0.00,wxRedirect v1.1,2013-05-25 05:57:00,
2013-05-25 01:05:00,70.0,62.4,30.09,SSE,157,3.4,15.7,77,-99.99,,,0.00,wxRedirect v1.1,2013-05-25 06:05:00,
2013-05-25 01:10:00,70.0,62.4,30.10,South,180,7.8,9.8,77,-99.99,,,0.00,wxRedirect v1.1,2013-05-25 06:10:00,
2013-05-25 01:15:00,69.8,62.2,30.10,SSE,157,7.6,9.8,77,-99.99,,,0.00,wxRedirect v1.1,2013-05-25 06:15:00,
2013-05-25 01:21:00,69.6,62.4,30.09,SSE,157,9.6,13.6,78,-99.99,,,0.00,wxRedirect v1.1,2013-05-25 06:21:00,
2013-05-25 01:26:00,69.6,62.4,30.09,South,180,6.9,13.6,78,-99.99,,,0.00,wxRedirect v1.1,2013-05-25 06:26:00,
2013-05-25 01:31:00,69.6,62.4,30.08,SSE,157,13.6,15.7,82,-99.99,,,0.00,wxRedirect v1.1,2013-05-25 06:31:00,
2013-05-25 01:36:00,69.4,62.2,30.09,SSE,157,2.5,15.7,78,-99.99,,,0.00,wxRedirect v1.1,2013-05-25 06:36:00,
2013-05-25 01:41:00,69.4,62.2,30.08,South,180,6.5,15.2,78,-99.99,,,0.00,wxRedirect v1.1,2013-05-25 06:41:00,
2013-05-25 01:47:00,69.3,62.1,30.09,SW,225,9.4,15.2,78,-99.99,,,0.00,wxRedirect v1.1,2013-05-25 06:47:00,
2013-05-25 01:52:00,69.3,62.5,30.08,SSE,157,9.2,16.8,79,-99.99,,,0.00,wxRedirect v1.1,2013-05-25 06:52:00,
2013-05-25 01:57:00,69.1,62.3,30.09,SSE,157,9.8,16.8,79,-99.99,,,0.00,wxRedirect v1.1,2013-05-25 06:57:00,
2013-05-25 02:03:00,69.1,62.3,30.08,South,180,6.3,14.3,79,-99.99,,,0.00,wxRedirect v1.1,2013-05-25 07:03:00,
2013-05-25 02:08:00,69.1,62.3,30.08,SSE,157,0.0,14.3,79,-99.99,,,0.00,wxRedirect v1.1,2013-05-25 07:08:00,
2013-05-25 02:13:00,69.1,62.3,30.07,South,180,13.6,13.6,79,-99.99,,,0.00,wxRedirect v1.1,2013-05-25 07:13:00,
2013-05-25 02:19:00,69.1,62.3,30.08,SE,135,0.0,13.6,79,-99.99,,,0.00,wxRedirect v1.1,2013-05-25 07:19:00,
2013-05-25 02:24:00,68.9,62.1,30.08,SSE,157,12.5,12.8,83,-99.99,,,0.00,wxRedirect v1.1,2013-05-25 07:24:00,
2013-05-25 02:29:00,68.9,62.1,30.08,South,180,6.0,13.4,79,-99.99,,,0.00,wxRedirect v1.1,2013-05-25 07:29:00,
2013-05-25 02:35:00,68.9,62.1,30.08,SE,135,15.2,15.2,79,-99.99,,,0.00,wxRedirect v1.1,2013-05-25 07:35:00,
2013-05-25 02:40:00,68.9,62.5,30.08,South,180,10.1,16.6,80,-99.99,,,0.00,wxRedirect v1.1,2013-05-25 07:40:00,
2013-05-25 02:46:00,68.9,62.5,30.08,South,180,5.8,16.6,80,-99.99,,,0.00,wxRedirect v1.1,2013-05-25 07:46:00,
2013-05-25 02:51:00,68.9,62.5,30.08,South,180,4.5,14.5,80,-99.99,,,0.00,wxRedirect v1.1,2013-05-25 07:51:00,
2013-05-25 02:56:00,68.9,62.5,30.08,SSE,157,8.1,16.3,80,-99.99,,,0.00,wxRedirect v1.1,2013-05-25 07:56:00,
2013-05-25 03:01:00,68.9,62.5,30.08,SE,135,3.1,17.4,80,-99.99,,,0.00,wxRedirect v1.1,2013-05-25 08:01:00,
2013-05-25 03:07:00,68.7,62.3,30.08,SSE,157,4.0,17.4,80,-99.99,,,0.00,wxRedirect v1.1,2013-05-25 08:07:00,
2013-05-25 03:12:00,68.7,62.7,30.08,SSW,202,7.6,17.2,81,-99.99,,,0.00,wxRedirect v1.1,2013-05-25 08:12:00,
2013-05-25 03:18:00,68.7,62.7,30.08,SSE,157,2.0,12.3,81,-99.99,,,0.00,wxRedirect v1.1,2013-05-25 08:18:00,
2013-05-25 03:23:00,68.7,62.7,30.08,SSW,202,4.0,14.5,81,-99.99,,,0.00,wxRedirect v1.1,2013-05-25 08:23:00,
2013-05-25 11:42:00,78.6,65.4,30.09,SSW,202,6.9,6.9,64,-99.99,,,0.00,wxRedirect v1.1,2013-05-25 16:42:00,
2013-05-25 11:47:00,78.8,65.2,30.10,South,180,11.2,15.4,63,-99.99,,,0.00,wxRedirect v1.1,2013-05-25 16:47:00,
2013-05-25 11:53:00,78.4,64.4,30.10,South,180,13.4,15.4,62,-99.99,,,0.00,wxRedirect v1.1,2013-05-25 16:53:00,
2013-05-25 11:58:00,78.1,64.5,30.10,SSE,157,10.1,14.8,63,-99.99,,,0.00,wxRedirect v1.1,2013-05-25 16:58:00,
2013-05-25 12:03:00,77.9,64.3,30.10,North,-999,-999.0,-999.0,63,-99.99,,,0.00,wxRedirect v1.1,2013-05-25 17:03:00,
2013-05-25 12:09:00,77.9,64.3,30.10,SSW,202,8.9,9.8,63,-99.99,,,0.00,wxRedirect v1.1,2013-05-25 17:09:00,
2013-05-25 12:14:00,78.1,64.5,30.10,SSW,202,11.6,19.7,67,-99.99,,,0.00,wxRedirect v1.1,2013-05-25 17:14:00,
2013-05-25 12:20:00,78.3,64.6,30.10,SSW,202,14.3,19.7,63,-99.99,,,0.00,wxRedirect v1.1,2013-05-25 17:20:00,
2013-05-25 12:25:00,78.4,65.2,30.10,North,-999,-999.0,-999.0,64,-99.99,,,0.00,wxRedirect v1.1,2013-05-25 17:25:00,
2013-05-25 12:30:00,78.6,65.4,30.10,South,180,6.9,12.8,64,-99.99,,,0.00,wxRedirect v1.1,2013-05-25 17:30:00,
2013-05-25 12:35:00,78.6,65.0,30.10,South,180,11.9,13.6,63,-99.99,,,0.00,wxRedirect v1.1,2013-05-25 17:35:00,
2013-05-25 12:40:00,78.6,65.4,30.10,North,-999,-999.0,-999.0,64,-99.99,,,0.00,wxRedirect v1.1,2013-05-25 17:40:00,
2013-05-25 12:46:00,79.0,65.3,30.10,South,180,8.3,13.2,63,-99.99,,,0.00,wxRedirect v1.1,2013-05-25 17:46:00,
2013-05-25 12:51:00,79.0,67.0,30.09,SSE,157,9.8,12.8,67,-99.99,,,0.00,wxRedirect v1.1,2013-05-25 17:51:00,
2013-05-25 12:56:00,79.0,65.3,30.09,South,180,12.3,16.1,63,-99.99,,,0.00,wxRedirect v1.1,2013-05-25 17:56:00,
2013-05-25 13:02:00,79.3,65.2,30.09,SSE,157,3.8,17.0,62,-99.99,,,0.00,wxRedirect v1.1,2013-05-25 18:02:00,
2013-05-25 13:07:00,79.2,67.2,30.09,South,180,10.1,17.0,67,-99.99,,,0.00,wxRedirect v1.1,2013-05-25 18:07:00,
2013-05-25 13:12:00,79.2,65.5,30.09,SSE,157,14.8,14.8,63,-99.99,,,0.00,wxRedirect v1.1,2013-05-25 18:12:00,
2013-05-25 13:17:00,79.2,65.5,30.09,South,180,14.1,16.3,67,-99.99,,,0.00,wxRedirect v1.1,2013-05-25 18:17:00,
2013-05-25 13:23:00,79.5,65.8,30.09,South,180,14.1,21.7,63,-99.99,,,0.00,wxRedirect v1.1,2013-05-25 18:23:00,
2013-05-25 13:28:00,79.7,66.0,30.09,SSW,202,9.4,24.2,63,-99.99,,,0.00,wxRedirect v1.1,2013-05-25 18:28:00,
2013-05-25 13:34:00,79.5,65.4,30.09,SSW,202,10.1,26.2,62,-99.99,,,0.00,wxRedirect v1.1,2013-05-25 18:34:00,
2013-05-25 13:39:00,79.3,65.2,30.07,SE,135,18.8,26.2,62,-99.99,,,0.00,wxRedirect v1.1,2013-05-25 18:39:00,
2013-05-25 13:45:00,79.3,65.6,30.08,SE,135,7.6,24.8,63,-99.99,,,0.00,wxRedirect v1.1,2013-05-25 18:45:00,
2013-05-25 13:50:00,79.5,65.8,30.08,SSE,157,17.2,24.2,63,-99.99,,,0.00,wxRedirect v1.1,2013-05-25 18:50:00,
2013-05-25 13:55:00,79.5,65.8,30.08,SSE,157,6.9,24.2,63,-99.99,,,0.00,wxRedirect v1.1,2013-05-25 18:55:00,
2013-05-25 14:00:00,79.5,65.8,30.08,North,-999,-999.0,-999.0,63,-99.99,,,0.00,wxRedirect v1.1,2013-05-25 19:00:00,
2013-05-25 14:05:00,79.5,67.6,30.07,South,180,10.3,17.0,67,-99.99,,,0.00,wxRedirect v1.1,2013-05-25 19:05:00,
2013-05-25 14:11:00,79.3,65.2,30.07,North,-999,-999.0,-999.0,62,-99.99,,,0.00,wxRedirect v1.1,2013-05-25 19:11:00,
2013-05-25 14:16:00,79.0,65.3,30.07,SSW,202,11.9,17.0,67,-99.99,,,0.00,wxRedirect v1.1,2013-05-25 19:16:00,
2013-05-25 14:21:00,79.0,65.3,30.07,South,180,11.6,21.3,63,-99.99,,,0.00,wxRedirect v1.1,2013-05-25 19:21:00,
2013-05-25 14:26:00,79.0,65.3,30.07,South,180,9.8,21.3,63,-99.99,,,0.00,wxRedirect v1.1,2013-05-25 19:26:00,
2013-05-25 14:32:00,79.0,65.3,30.07,North,-999,-999.0,-999.0,67,-99.99,,,0.00,wxRedirect v1.1,2013-05-25 19:32:00,
2013-05-25 14:37:00,79.0,65.3,30.07,SSW,202,10.5,18.8,67,-99.99,,,0.00,wxRedirect v1.1,2013-05-25 19:37:00,
2013-05-25 14:43:00,79.0,65.8,30.07,North,-999,-999.0,-999.0,64,-99.99,,,0.00,wxRedirect v1.1,2013-05-25 19:43:00,
2013-05-25 14:48:00,79.5,65.8,30.06,SE,135,6.0,17.4,67,-99.99,,,0.00,wxRedirect v1.1,2013-05-25 19:48:00,
2013-05-25 14:53:00,79.7,66.0,30.06,South,180,11.2,20.8,67,-99.99,,,0.00,wxRedirect v1.1,2013-05-25 19:53:00,
2013-05-25 14:59:00,80.2,66.0,30.06,SSE,157,11.6,20.8,62,-99.99,,,0.00,wxRedirect v1.1,2013-05-25 19:59:00,
2013-05-25 15:04:00,80.2,66.0,30.06,SSE,157,7.4,18.3,62,-99.99,,,0.00,wxRedirect v1.1,2013-05-25 20:04:00,
2013-05-25 15:09:00,80.2,65.6,30.06,South,180,16.3,18.3,61,-99.99,,,0.00,wxRedirect v1.1,2013-05-25 20:09:00,
2013-05-25 15:15:00,80.2,66.0,30.05,North,-999,-999.0,-999.0,62,-99.99,,,0.00,wxRedirect v1.1,2013-05-25 20:15:00,
2013-05-25 15:20:00,80.2,67.8,30.05,SE,135,5.1,21.7,66,-99.99,,,0.00,wxRedirect v1.1,2013-05-25 20:20:00,
2013-05-25 15:26:00,80.2,66.0,30.05,North,-999,-999.0,-999.0,66,-99.99,,,0.00,wxRedirect v1.1,2013-05-25 20:26:00,
2013-05-25 15:31:00,80.2,66.0,30.04,SE,135,5.8,25.7,62,-99.99,,,0.00,wxRedirect v1.1,2013-05-25 20:31:00,
2013-05-25 15:37:00,80.2,67.4,30.04,SSE,157,6.0,25.7,65,-99.99,,,0.00,wxRedirect v1.1,2013-05-25 20:37:00,
2013-05-25 15:43:00,80.4,66.2,30.04,SSW,202,8.1,21.0,62,-99.99,,,0.00,wxRedirect v1.1,2013-05-25 20:43:00,
2013-05-25 15:48:00,80.6,66.4,30.04,South,180,8.1,14.8,62,-99.99,,,0.00,wxRedirect v1.1,2013-05-25 20:48:00,
2013-05-25 15:53:00,80.8,66.5,30.04,SW,225,6.3,15.2,62,-99.99,,,0.00,wxRedirect v1.1,2013-05-25 20:53:00,
2013-05-25 15:59:00,81.0,66.3,30.03,SSE,157,15.2,17.7,65,-99.99,,,0.00,wxRedirect v1.1,2013-05-25 20:59:00,
2013-05-25 16:04:00,81.1,66.4,30.03,SSE,157,15.4,18.8,61,-99.99,,,0.00,wxRedirect v1.1,2013-05-25 21:04:00,
2013-05-25 16:09:00,81.1,66.4,30.02,SSE,157,11.6,18.8,61,-99.99,,,0.00,wxRedirect v1.1,2013-05-25 21:09:00,
2013-05-25 16:14:00,81.0,66.3,30.01,SE,135,13.4,17.4,65,-99.99,,,0.00,wxRedirect v1.1,2013-05-25 21:14:00,
2013-05-25 16:20:00,81.1,66.4,30.02,SSE,157,14.5,19.9,61,-99.99,,,0.00,wxRedirect v1.1,2013-05-25 21:20:00,
2013-05-25 17:44:00,81.3,65.6,29.99,SSE,157,13.2,30.6,59,-99.99,,,0.00,wxRedirect v1.1,2013-05-25 22:44:00,
2013-05-25 17:49:00,81.1,66.0,29.99,SSE,157,2.5,32.4,60,-99.99,,,0.00,wxRedirect v1.1,2013-05-25 22:49:00,
2013-05-25 17:54:00,81.1,65.4,29.99,SSW,202,15.0,32.4,59,-99.99,,,0.00,wxRedirect v1.1,2013-05-25 22:54:00,
2013-05-25 18:00:00,81.1,66.0,29.98,North,-999,-999.0,-999.0,60,-99.99,,,0.00,wxRedirect v1.1,2013-05-25 23:00:00,
2013-05-25 18:05:00,81.1,66.4,29.98,SSE,157,18.6,28.2,61,-99.99,,,0.00,wxRedirect v1.1,2013-05-25 23:05:00,
2013-05-25 18:10:00,80.8,66.5,29.98,SSE,157,7.4,28.2,62,-99.99,,,0.00,wxRedirect v1.1,2013-05-25 23:10:00,
2013-05-25 18:21:00,80.8,66.5,29.97,South,180,10.3,10.3,62,-99.99,,,0.00,wxRedirect v1.1,2013-05-25 23:21:00,
2013-05-25 18:26:00,80.8,66.1,29.97,SSE,157,18.1,25.5,61,-99.99,,,0.00,wxRedirect v1.1,2013-05-25 23:26:00,
2013-05-25 18:32:00,80.8,66.1,29.98,North,-999,-999.0,-999.0,61,-99.99,,,0.00,wxRedirect v1.1,2013-05-25 23:32:00,
2013-05-25 18:37:00,80.6,67.3,29.97,SSE,157,9.8,25.7,64,-99.99,,,0.00,wxRedirect v1.1,2013-05-25 23:37:00,
2013-05-25 18:43:00,80.4,65.3,29.97,SE,135,2.2,25.7,60,0.00,,,0.00,wxRedirect v1.1,2013-05-25 23:43:00,
2013-05-25 18:49:00,80.4,66.7,29.97,South,180,21.9,21.9,63,-99.99,,,0.00,wxRedirect v1.1,2013-05-25 23:49:00,
2013-05-25 18:55:00,79.9,66.6,29.97,SSE,157,7.6,21.9,64,-99.99,,,0.00,wxRedirect v1.1,2013-05-25 23:55:00,
2013-05-25 19:01:00,79.5,66.3,29.97,SSE,157,21.0,21.0,64,-99.99,,,0.00,wxRedirect v1.1,2013-05-26 00:01:00,
2013-05-25 19:06:00,79.3,66.5,29.97,South,180,5.8,23.0,65,-99.99,,,0.00,wxRedirect v1.1,2013-05-26 00:06:00,
2013-05-25 19:12:00,79.2,66.4,29.97,SSE,157,8.3,23.0,65,-99.99,,,0.00,wxRedirect v1.1,2013-05-26 00:12:00,
2013-05-25 19:17:00,79.0,66.2,29.95,South,180,7.6,20.4,65,-99.99,,,0.00,wxRedirect v1.1,2013-05-26 00:17:00,
2013-05-25 19:22:00,79.0,66.6,29.97,South,180,5.4,17.4,66,-99.99,,,0.00,wxRedirect v1.1,2013-05-26 00:22:00,
2013-05-25 19:28:00,79.0,66.6,29.97,SSE,157,2.9,16.3,66,-99.99,,,0.00,wxRedirect v1.1,2013-05-26 00:28:00,
2013-05-25 19:33:00,78.8,66.0,29.96,North,-999,-999.0,-999.0,65,-99.99,,,0.00,wxRedirect v1.1,2013-05-26 00:33:00,
2013-05-25 19:38:00,78.6,65.8,29.96,North,-999,-999.0,-999.0,65,-99.99,,,0.00,wxRedirect v1.1,2013-05-26 00:38:00,
2013-05-25 19:43:00,78.6,65.8,29.96,SSE,157,7.6,18.3,65,-99.99,,,0.00,wxRedirect v1.1,2013-05-26 00:43:00,
2013-05-25 19:48:00,78.6,65.8,29.96,South,180,6.9,17.7,65,-99.99,,,0.00,wxRedirect v1.1,2013-05-26 00:48:00,
2013-05-25 19:54:00,78.6,65.8,29.96,SSE,157,8.1,17.7,65,-99.99,,,0.00,wxRedirect v1.1,2013-05-26 00:54:00,
2013-05-25 19:59:00,78.4,65.7,29.95,SSE,157,8.1,19.5,65,-99.99,,,0.00,wxRedirect v1.1,2013-05-26 00:59:00,
2013-05-25 20:05:00,78.4,66.1,29.95,North,-999,-999.0,-999.0,66,-99.99,,,0.00,wxRedirect v1.1,2013-05-26 01:05:00,
2013-05-25 20:10:00,78.1,66.2,29.96,South,180,9.4,23.3,67,-99.99,,,0.00,wxRedirect v1.1,2013-05-26 01:10:00,
2013-05-25 20:15:00,77.9,66.0,29.96,SSE,157,1.6,23.3,67,-99.99,,,0.00,wxRedirect v1.1,2013-05-26 01:15:00,
2013-05-25 20:21:00,77.7,65.9,29.96,North,-999,-999.0,-999.0,67,-99.99,,,0.00,wxRedirect v1.1,2013-05-26 01:21:00,
2013-05-25 20:26:00,77.5,66.1,29.96,SSE,157,7.8,13.4,68,-99.99,,,0.00,wxRedirect v1.1,2013-05-26 01:26:00,
2013-05-25 20:31:00,77.5,66.1,29.96,SSE,157,1.6,13.4,68,-99.99,,,0.00,wxRedirect v1.1,2013-05-26 01:31:00,
2013-05-25 20:37:00,77.2,66.3,29.97,South,180,9.6,11.4,69,-99.99,,,0.00,wxRedirect v1.1,2013-05-26 01:37:00,
2013-05-25 20:42:00,77.2,66.3,29.98,North,-999,-999.0,-999.0,69,-99.99,,,0.00,wxRedirect v1.1,2013-05-26 01:42:00,
2013-05-25 20:47:00,77.0,66.1,29.98,North,-999,-999.0,-999.0,73,-99.99,,,0.00,wxRedirect v1.1,2013-05-26 01:47:00,
2013-05-25 20:53:00,76.8,65.9,29.98,South,180,11.6,11.6,69,-99.99,,,0.00,wxRedirect v1.1,2013-05-26 01:53:00,
2013-05-25 20:58:00,76.8,65.9,29.99,SSE,157,12.5,15.0,69,-99.99,,,0.00,wxRedirect v1.1,2013-05-26 01:58:00,
2013-05-25 21:04:00,76.6,65.8,29.99,North,-999,-999.0,-999.0,69,-99.99,,,0.00,wxRedirect v1.1,2013-05-26 02:04:00,
2013-05-25 21:09:00,76.5,66.0,29.99,SSE,157,11.0,16.8,70,-99.99,,,0.00,wxRedirect v1.1,2013-05-26 02:09:00,
2013-05-25 21:14:00,76.3,65.8,29.99,SSE,157,8.5,16.8,70,-99.99,,,0.00,wxRedirect v1.1,2013-05-26 02:14:00,
2013-05-25 21:19:00,76.1,65.7,29.99,South,180,2.9,12.1,70,-99.99,,,0.00,wxRedirect v1.1,2013-05-26 02:19:00,
2013-05-25 21:24:00,76.1,65.7,29.99,North,-999,-999.0,-999.0,70,-99.99,,,0.00,wxRedirect v1.1,2013-05-26 02:24:00,
2013-05-25 21:29:00,75.9,65.9,29.99,SE,135,0.0,13.4,71,-99.99,,,0.00,wxRedirect v1.1,2013-05-26 02:29:00,
2013-05-25 21:35:00,75.7,65.7,29.99,SSE,157,0.0,13.4,71,-99.99,,,0.00,wxRedirect v1.1,2013-05-26 02:35:00,
2013-05-25 21:40:00,75.6,65.5,29.99,SSE,157,5.6,10.3,71,-99.99,,,0.00,wxRedirect v1.1,2013-05-26 02:40:00,
2013-05-25 21:45:00,75.4,65.7,29.99,SSE,157,4.0,10.7,76,-99.99,,,0.00,wxRedirect v1.1,2013-05-26 02:45:00,
2013-05-25 21:50:00,75.0,65.4,29.99,North,-999,-999.0,-999.0,72,-99.99,,,0.00,wxRedirect v1.1,2013-05-26 02:50:00,
2013-05-25 21:55:00,75.0,65.4,29.99,South,180,4.5,9.8,72,-99.99,,,0.00,wxRedirect v1.1,2013-05-26 02:55:00,
2013-05-25 22:01:00,74.8,65.2,29.99,SE,135,5.4,12.3,72,-99.99,,,0.00,wxRedirect v1.1,2013-05-26 03:01:00,
2013-05-25 22:07:00,74.8,65.2,30.00,SE,135,7.4,12.3,72,-99.99,,,0.00,wxRedirect v1.1,2013-05-26 03:07:00,
2013-05-25 22:12:00,74.7,65.0,30.00,SSE,157,7.2,12.5,76,-99.99,,,0.00,wxRedirect v1.1,2013-05-26 03:12:00,
2013-05-25 22:17:00,74.5,64.9,30.00,SSE,157,4.0,13.6,72,-99.99,,,0.00,wxRedirect v1.1,2013-05-26 03:17:00,
2013-05-25 22:22:00,74.3,65.1,30.00,North,-999,-999.0,-999.0,73,-99.99,,,0.00,wxRedirect v1.1,2013-05-26 03:22:00,
2013-05-25 22:27:00,74.3,65.1,30.00,North,-999,-999.0,-999.0,73,-99.99,,,0.00,wxRedirect v1.1,2013-05-26 03:27:00,
2013-05-25 22:32:00,74.1,64.9,30.01,SSE,157,2.9,11.4,73,-99.99,,,0.00,wxRedirect v1.1,2013-05-26 03:32:00,
2013-05-25 22:38:00,74.1,64.9,30.00,SSE,157,7.4,11.4,73,-99.99,,,0.00,wxRedirect v1.1,2013-05-26 03:38:00,
2013-05-25 22:43:00,73.9,65.2,30.00,North,-999,-999.0,-999.0,74,-99.99,,,0.00,wxRedirect v1.1,2013-05-26 03:43:00,
2013-05-25 22:49:00,73.6,64.8,30.01,North,-999,-999.0,-999.0,74,-99.99,,,0.00,wxRedirect v1.1,2013-05-26 03:49:00,
2013-05-25 22:54:00,73.4,64.7,30.00,North,-999,-999.0,-999.0,74,-99.99,,,0.00,wxRedirect v1.1,2013-05-26 03:54:00,
2013-05-25 22:59:00,73.2,64.5,30.00,South,180,13.9,15.4,74,-99.99,,,0.00,wxRedirect v1.1,2013-05-26 03:59:00,
2013-05-25 23:01:00,73.2,64.5,30.01,SSE,157,3.1,15.4,74,-99.99,,,0.00,wxRedirect v1.1,2013-05-26 04:01:00,
2013-05-25 23:03:00,73.2,64.5,30.01,SSE,157,9.2,15.4,74,-99.99,,,0.00,wxRedirect v1.1,2013-05-26 04:03:00,
2013-05-25 23:05:00,73.2,64.5,30.00,North,-999,-999.0,-999.0,74,-99.99,,,0.00,wxRedirect v1.1,2013-05-26 04:05:00,
2013-05-25 23:10:00,73.0,64.7,30.01,South,180,8.7,9.2,75,-99.99,,,0.00,wxRedirect v1.1,2013-05-26 04:10:00,
2013-05-25 23:15:00,72.9,64.5,30.01,North,-999,-999.0,-999.0,75,-99.99,,,0.00,wxRedirect v1.1,2013-05-26 04:15:00,
2013-05-25 23:20:00,72.7,64.3,30.01,SSE,157,7.2,11.9,75,-99.99,,,0.00,wxRedirect v1.1,2013-05-26 04:20:00,
2013-05-25 23:25:00,72.5,64.1,30.00,SSE,157,0.9,10.5,75,-99.99,,,0.00,wxRedirect v1.1,2013-05-26 04:25:00,
2013-05-25 23:30:00,72.3,64.0,30.01,South,180,5.4,17.7,75,-99.99,,,0.00,wxRedirect v1.1,2013-05-26 04:30:00,
2013-05-25 23:36:00,72.3,64.3,30.01,SSE,157,5.6,17.7,76,-99.99,,,0.00,wxRedirect v1.1,2013-05-26 04:36:00,
2013-05-25 23:41:00,72.1,64.1,30.01,SSE,157,3.6,11.0,76,-99.99,,,0.00,wxRedirect v1.1,2013-05-26 04:41:00,
2013-05-25 23:46:00,72.1,64.1,30.01,SSW,202,10.5,10.5,76,-99.99,,,0.00,wxRedirect v1.1,2013-05-26 04:46:00,
2013-05-25 23:51:00,72.0,64.0,30.01,South,180,0.0,12.3,76,-99.99,,,0.00,wxRedirect v1.1,2013-05-26 04:51:00,
2013-05-25 23:56:00,71.8,63.8,30.01,SSE,157,6.5,12.8,76,-99.99,,,0.00,wxRedirect v1.1,2013-05-26 04:56:00,